createdAt,value
2019-05-06T00:00:59.750Z,8.15
2019-05-06T00:06:06.703Z,8.08
2019-05-06T00:11:14.210Z,7.97
2019-05-06T00:19:13.986Z,7.88
2019-05-06T00:24:23.892Z,7.86
2019-05-06T00:29:34.914Z,7.79
2019-05-06T00:34:43.657Z,7.70
2019-05-06T00:40:07.042Z,7.53
2019-05-06T00:45:15.579Z,7.53
2019-05-06T00:50:23.898Z,7.44
2019-05-06T00:55:33.632Z,7.37
2019-05-06T01:04:59.525Z,7.22
2019-05-06T01:10:06.928Z,7.25
2019-05-06T01:15:17.252Z,7.27
2019-05-06T01:20:24.747Z,7.34
2019-05-06T01:25:34.445Z,7.48
2019-05-06T01:30:40.717Z,7.63
2019-05-06T01:35:47.480Z,7.94
2019-05-06T01:41:29.215Z,7.94
2019-05-06T01:46:35.614Z,8.10
2019-05-06T01:51:43.765Z,8.38
2019-05-06T01:56:51.415Z,8.38
2019-05-06T02:02:01.109Z,8.62
2019-05-06T02:07:07.399Z,8.62
2019-05-06T02:12:14.442Z,8.69
2019-05-06T02:17:23.344Z,8.73
2019-05-06T02:22:44.293Z,8.75
2019-05-06T02:27:51.424Z,8.79
2019-05-06T02:33:16.350Z,8.75
2019-05-06T02:38:32.669Z,8.70
2019-05-06T02:43:34.748Z,8.60
2019-05-06T02:48:54.390Z,8.46
2019-05-06T02:54:03.280Z,8.34
2019-05-06T02:59:12.573Z,8.00
2019-05-06T03:04:17.300Z,8.00
2019-05-06T03:09:24.478Z,7.83
2019-05-06T03:14:34.464Z,7.68
2019-05-06T03:20:59.280Z,7.46
2019-05-06T03:26:07.050Z,7.37
2019-05-06T03:31:16.587Z,7.22
2019-05-06T03:36:27.310Z,7.13
2019-05-06T03:41:33.910Z,7.04
2019-05-06T03:47:09.252Z,6.96
2019-05-06T03:52:17.650Z,6.89
2019-05-06T03:57:25.425Z,6.81
2019-05-06T04:02:33.712Z,6.76
2019-05-06T04:07:45.465Z,6.73
2019-05-06T04:12:53.436Z,6.65
2019-05-06T04:18:04.294Z,6.65
2019-05-06T04:23:23.450Z,6.69
2019-05-06T04:28:34.124Z,6.67
2019-05-06T04:33:41.511Z,6.64
2019-05-06T04:38:48.443Z,6.64
2019-05-06T04:43:55.435Z,6.65
2019-05-06T04:49:04.021Z,6.64
2019-05-06T04:54:13.442Z,6.67
2019-05-06T04:59:23.242Z,6.71
2019-05-06T05:04:32.754Z,6.71
2019-05-06T05:09:38.699Z,6.88
2019-05-06T05:14:56.251Z,6.88
2019-05-06T05:20:04.224Z,6.97
2019-05-06T05:25:12.187Z,7.06
2019-05-06T05:30:19.436Z,7.19
2019-05-06T05:35:26.557Z,7.31
2019-05-06T05:40:34.453Z,7.42
2019-05-06T06:01:13.433Z,8.97
2019-05-06T06:06:22.193Z,8.97
2019-05-06T06:11:34.918Z,8.55
2019-05-06T06:16:57.246Z,8.55
2019-05-06T06:22:08.254Z,8.62
2019-05-06T06:27:17.062Z,8.62
2019-05-06T06:32:29.442Z,8.74
2019-05-06T06:37:52.450Z,8.80
2019-05-06T06:43:07.246Z,8.82
2019-05-06T06:48:15.035Z,8.88
2019-05-06T06:53:22.436Z,9.00
2019-05-06T06:58:35.298Z,9.17
2019-05-06T07:03:50.100Z,9.38
2019-05-06T07:08:57.224Z,9.42
2019-05-06T07:14:05.437Z,9.70
2019-05-06T07:19:14.600Z,9.95
2019-05-06T07:24:22.846Z,10.50
2019-05-06T07:29:32.633Z,10.50
2019-05-06T07:34:39.426Z,10.82
2019-05-06T07:39:46.433Z,11.08
2019-05-06T07:45:22.012Z,11.07
2019-05-06T07:50:33.087Z,11.09
2019-05-06T07:55:42.388Z,11.00
2019-05-06T08:00:49.559Z,10.95
2019-05-06T08:05:58.816Z,10.95
2019-05-06T08:11:05.540Z,11.00
2019-05-06T08:16:13.257Z,11.59
2019-05-06T08:21:23.358Z,11.59
2019-05-06T08:26:32.303Z,11.95
2019-05-06T08:31:39.575Z,12.02
2019-05-06T08:37:12.042Z,12.21
2019-05-06T08:42:19.424Z,12.46
2019-05-06T08:47:27.469Z,12.32
2019-05-06T08:52:53.263Z,12.28
2019-05-06T09:00:12.744Z,12.92
2019-05-06T09:05:19.436Z,13.64
2019-05-06T09:10:26.460Z,13.49
2019-05-06T09:15:33.445Z,13.48
2019-05-06T09:20:40.564Z,13.85
2019-05-06T09:25:47.422Z,13.53
2019-05-06T09:31:02.107Z,13.17
2019-05-06T09:36:09.565Z,12.98
2019-05-06T09:41:16.447Z,12.98
2019-05-06T09:46:23.578Z,13.27
2019-05-06T09:51:32.505Z,13.76
2019-05-06T09:57:02.444Z,13.76
2019-05-06T10:02:12.376Z,13.64
2019-05-06T10:07:19.435Z,13.73
2019-05-06T10:12:26.449Z,13.46
2019-05-06T10:17:33.576Z,14.02
2019-05-06T10:22:42.901Z,14.06
2019-05-06T10:27:52.481Z,14.05
2019-05-06T10:33:02.083Z,14.05
2019-05-06T10:38:38.906Z,14.35
2019-05-06T10:44:12.285Z,14.91
2019-05-06T10:49:22.557Z,15.72
2019-05-06T10:54:28.331Z,15.32
2019-05-06T10:59:35.405Z,14.73
2019-05-06T11:04:42.652Z,14.27
2019-05-06T11:09:49.581Z,14.28
2019-05-06T11:14:56.541Z,14.25
2019-05-06T11:20:06.548Z,14.13
2019-05-06T11:25:12.430Z,14.10
2019-05-06T11:30:44.295Z,14.51
2019-05-06T11:36:16.273Z,15.21
2019-05-06T11:41:23.567Z,15.03
2019-05-06T11:46:32.248Z,14.71
2019-05-06T11:51:39.440Z,14.72
2019-05-06T11:56:50.680Z,15.29
2019-05-06T12:02:02.600Z,15.19
2019-05-06T12:07:11.690Z,15.10
2019-05-06T12:12:18.581Z,15.21
2019-05-06T12:17:25.442Z,15.24
2019-05-06T12:22:38.611Z,15.15
2019-05-06T12:27:45.455Z,16.22
2019-05-06T12:33:10.247Z,16.22
2019-05-06T12:38:30.276Z,16.34
2019-05-06T12:43:49.354Z,15.98
2019-05-06T12:48:56.449Z,15.65
2019-05-06T12:54:03.719Z,15.54
2019-05-06T12:59:12.854Z,15.33
2019-05-06T13:04:42.490Z,15.22
2019-05-06T13:09:28.635Z,15.22
2019-05-06T13:14:37.256Z,16.03
2019-05-06T13:19:44.426Z,16.03
2019-05-06T13:24:52.043Z,15.83
2019-05-06T13:30:02.011Z,15.93
2019-05-06T13:35:09.022Z,15.78
2019-05-06T13:40:16.692Z,15.83
2019-05-06T13:45:23.615Z,16.32
2019-05-06T13:50:32.743Z,17.71
2019-05-06T13:55:39.595Z,17.71
2019-05-06T14:00:47.341Z,17.81
2019-05-06T14:05:54.434Z,17.81
2019-05-06T14:11:02.937Z,17.73
2019-05-06T14:16:12.891Z,17.39
2019-05-06T14:21:19.574Z,17.50
2019-05-06T14:26:33.271Z,17.23
2019-05-06T14:31:44.379Z,17.23
2019-05-06T14:36:53.411Z,16.95
2019-05-06T14:42:02.405Z,16.77
2019-05-06T14:47:18.255Z,16.74
2019-05-06T14:52:24.340Z,17.80
2019-05-06T14:57:32.286Z,18.50
2019-05-06T15:02:39.552Z,18.48
2019-05-06T15:07:45.317Z,17.72
2019-05-06T15:12:53.572Z,17.05
2019-05-06T15:18:02.878Z,16.50
2019-05-06T15:23:09.912Z,15.91
2019-05-06T15:29:18.617Z,15.47
2019-05-06T15:34:38.653Z,15.01
2019-05-06T15:39:45.457Z,14.66
2019-05-06T15:44:52.449Z,14.66
2019-05-06T15:49:59.589Z,14.51
2019-05-06T15:55:07.027Z,14.15
2019-05-06T16:00:18.314Z,14.15
2019-05-06T16:05:26.670Z,14.06
2019-05-06T16:10:50.339Z,13.89
2019-05-06T16:15:42.582Z,13.73
2019-05-06T16:20:49.477Z,13.42
2019-05-06T16:25:56.632Z,13.42
2019-05-06T16:31:05.416Z,13.24
2019-05-06T16:36:13.197Z,13.12
2019-05-06T16:41:22.451Z,13.10
2019-05-06T16:46:29.503Z,13.03
2019-05-06T16:51:36.600Z,13.03
2019-05-06T16:57:02.382Z,13.03
2019-05-06T17:02:18.259Z,12.92
2019-05-06T17:07:24.293Z,12.83
2019-05-06T17:12:32.287Z,12.76
2019-05-06T17:17:43.219Z,12.59
2019-05-06T17:22:46.925Z,12.50
2019-05-06T17:27:54.056Z,12.28
2019-05-06T17:33:19.689Z,12.28
2019-05-06T17:40:45.580Z,11.84
2019-05-06T17:46:02.349Z,11.80
2019-05-06T17:51:13.672Z,11.75
2019-05-06T17:56:22.262Z,11.70
2019-05-06T18:01:35.261Z,11.70
2019-05-06T18:06:42.679Z,11.70
2019-05-06T18:11:58.431Z,11.64
2019-05-06T18:16:57.286Z,11.64
2019-05-06T18:22:04.557Z,11.44
2019-05-06T18:27:13.055Z,11.37
2019-05-06T18:32:19.303Z,11.37
2019-05-06T18:37:26.921Z,11.27
2019-05-06T18:42:34.265Z,11.24
2019-05-06T18:47:41.840Z,11.22
2019-05-06T18:52:49.462Z,11.16
2019-05-06T18:57:56.892Z,11.16
2019-05-06T19:03:02.838Z,11.15
2019-05-06T19:13:36.249Z,11.05
2019-05-06T19:18:43.599Z,10.95
2019-05-06T19:23:51.927Z,10.82
2019-05-06T19:28:59.443Z,10.82
2019-05-06T19:34:07.766Z,10.78
2019-05-06T19:39:14.585Z,10.71
2019-05-06T19:44:22.039Z,10.55
2019-05-06T19:49:29.532Z,10.55
2019-05-06T19:54:36.468Z,10.52
2019-05-06T19:59:43.474Z,10.48
2019-05-06T20:04:54.538Z,10.45
2019-05-06T20:10:14.257Z,10.41
2019-05-06T20:15:42.612Z,10.21
2019-05-06T20:20:49.665Z,10.21
2019-05-06T20:25:56.571Z,10.04
2019-05-06T20:31:04.452Z,10.04
2019-05-06T20:36:12.618Z,10.02
2019-05-06T20:41:19.575Z,9.99
2019-05-06T20:46:26.539Z,9.98
2019-05-06T20:51:33.504Z,10.00
2019-05-06T20:56:42.159Z,9.99
2019-05-06T21:01:48.318Z,9.99
2019-05-06T21:06:57.613Z,10.01
2019-05-06T21:12:04.479Z,10.01
2019-05-06T21:17:13.268Z,9.97
2019-05-06T21:22:19.295Z,9.95
2019-05-06T21:27:30.270Z,9.91
2019-05-06T21:32:37.450Z,9.88
2019-05-06T21:37:44.874Z,9.83
2019-05-06T21:42:51.584Z,9.76
2019-05-06T21:48:02.583Z,9.63
2019-05-06T21:53:12.211Z,9.63
2019-05-06T21:58:17.450Z,9.52
2019-05-06T22:03:24.533Z,9.46
2019-05-06T22:08:32.875Z,9.40
2019-05-06T22:13:39.772Z,9.32
2019-05-06T22:18:47.067Z,9.21
2019-05-06T22:23:56.255Z,9.12
2019-05-06T22:29:03.501Z,9.02
2019-05-06T22:34:10.493Z,8.95
2019-05-06T22:39:17.468Z,8.90
2019-05-06T22:44:24.461Z,8.85
2019-05-06T22:49:32.104Z,8.83
2019-05-06T22:54:38.272Z,8.81
2019-05-06T22:59:45.426Z,8.78
2019-05-06T23:04:55.748Z,8.69
2019-05-06T23:10:02.564Z,8.69
2019-05-06T23:15:12.107Z,8.69
2019-05-06T23:20:19.064Z,8.69
2019-05-06T23:25:26.375Z,8.69
2019-05-06T23:30:33.391Z,8.74
2019-05-06T23:35:43.706Z,8.76
2019-05-06T23:41:45.266Z,8.83
2019-05-06T23:47:28.393Z,8.91
2019-05-06T23:53:12.329Z,8.93
2019-05-06T23:58:17.241Z,8.97
